»·PEaware :: DCM141 KOPF-TNCM

DCM141 :: KOPF-TNCM

FLIGHT INFORMATION

Flight Status: Arrived
Operator: Unknown
More flights by this operator :: More flights under this callsign
Pilot: Ryan C. (15122)
Aircraft: PILATUS PC-12 EAGLE
(PC12)
More flights by this aircraft type
Origin: KOPF Opa Locka
United States
Destination: TNCM Princess Juliana Intl
Netherlands Antilles
More flights between these airports :: More routes between these airports
Route: MIA5 BEECH BAHMA HARDE BIDAHO SLUGO PJM
File this flight plan on PilotEdge
Remarks:
Altitude:
(Current/Filed)
29,000ft
Speed:
(Current/Filed)
330kts
Departed: 04-Feb-18 01:30 PM
Arrived: 04-Feb-18 05:31 PM
Distance/Time
Traveled:
1064nm/4:01
Distance/Time
To Go:
Arrived

Flight Plot

Page will automatically refresh every two minutes.

Flight plan parsing failed; only flown route is shown


Map Options




Map Legend


Flown Route
Filed Route
Departure Airport
Arrival Airport
Navaid (VOR, NDB)
Fix

Horizontal Profiles

Position Reports

Time Latitude Longitude Heading Altitude Ground
Speed
04-Feb-18 13:18 25.910487 -80.268415 26 7ft 0kts
04-Feb-18 13:19 25.910487 -80.268415 26 7ft 0kts
04-Feb-18 13:20 25.910487 -80.268415 26 7ft 0kts
04-Feb-18 13:21 25.910487 -80.268415 26 7ft 0kts
04-Feb-18 13:22 25.910487 -80.268415 26 7ft 0kts
04-Feb-18 13:23 25.910487 -80.268415 26 7ft 0kts
04-Feb-18 13:24 25.910487 -80.268415 26 7ft 0kts
04-Feb-18 13:25 25.910487 -80.268415 26 7ft 0kts
04-Feb-18 13:26 25.910487 -80.268415 26 7ft 0kts
04-Feb-18 13:27 25.910487 -80.268415 26 7ft 0kts
04-Feb-18 13:28 25.910558 -80.269711 277 7ft 0kts
04-Feb-18 13:29 25.911461 -80.270263 332 7ft 11kts
04-Feb-18 13:30 25.911413 -80.274465 268 4ft 15kts
04-Feb-18 13:31 25.911080 -80.280065 265 4ft 19kts
04-Feb-18 13:32 25.910814 -80.285434 243 4ft 13kts
04-Feb-18 13:33 25.910115 -80.286078 216 6ft 0kts
04-Feb-18 13:34 25.910115 -80.286078 215 6ft 0kts
04-Feb-18 13:35 25.909864 -80.286275 213 6ft 9kts
04-Feb-18 13:36 25.901125 -80.271506 125 471ft 102kts
04-Feb-18 13:37 25.887339 -80.239657 129 1970ft 143kts
04-Feb-18 13:38 25.846949 -80.211692 151 2000ft 206kts
04-Feb-18 13:39 25.797051 -80.181251 150 1994ft 217kts
04-Feb-18 13:40 25.762210 -80.138132 101 1987ft 172kts
04-Feb-18 13:41 25.771049 -80.091479 75 3022ft 155kts
04-Feb-18 13:42 25.784478 -80.045577 75 4729ft 160kts
04-Feb-18 13:43 25.798213 -79.998469 75 6437ft 163kts
04-Feb-18 13:44 25.812291 -79.950106 75 8057ft 170kts
04-Feb-18 13:45 25.826263 -79.902111 73 9576ft 176kts
04-Feb-18 13:46 25.841806 -79.848565 72 10720ft 198kts
04-Feb-18 13:47 25.858683 -79.790349 71 12066ft 202kts
04-Feb-18 13:48 25.875677 -79.731693 70 13384ft 205kts
04-Feb-18 13:49 25.893378 -79.671742 70 14678ft 209kts
04-Feb-18 13:50 25.911246 -79.610407 70 15948ft 213kts
04-Feb-18 13:51 25.929244 -79.547968 70 17192ft 217kts
04-Feb-18 13:52 25.947530 -79.484378 69 18412ft 221kts
04-Feb-18 13:53 25.966063 -79.419848 69 19604ft 225kts
04-Feb-18 13:54 25.971966 -79.351824 99 20772ft 229kts
04-Feb-18 13:55 25.962916 -79.281921 100 21898ft 239kts
04-Feb-18 13:56 25.953054 -79.208275 100 23119ft 245kts
04-Feb-18 13:57 25.942541 -79.133369 110 24311ft 246kts
04-Feb-18 13:58 25.910778 -79.067657 126 25457ft 244kts
04-Feb-18 13:59 25.876995 -79.002444 126 26564ft 247kts
04-Feb-18 14:00 25.843319 -78.937618 126 27590ft 249kts
04-Feb-18 14:01 25.808783 -78.871233 126 28567ft 252kts
04-Feb-18 14:02 25.773048 -78.802796 126 29106ft 270kts
04-Feb-18 14:03 25.733526 -78.727265 125 29106ft 298kts
04-Feb-18 14:04 25.691005 -78.645848 124 29106ft 312kts
04-Feb-18 14:05 25.647092 -78.561928 124 29106ft 319kts
04-Feb-18 14:06 25.602807 -78.477460 124 29107ft 322kts
04-Feb-18 14:07 25.558128 -78.392370 124 29121ft 323kts
04-Feb-18 14:08 25.513773 -78.308030 125 29118ft 323kts
04-Feb-18 14:09 25.469100 -78.223218 125 29124ft 322kts
04-Feb-18 14:10 25.424250 -78.138246 125 29125ft 322kts
04-Feb-18 14:11 25.379374 -78.053389 125 29126ft 322kts
04-Feb-18 14:12 25.334594 -77.968841 126 29109ft 318kts
04-Feb-18 14:13 25.290352 -77.885489 126 29110ft 315kts
04-Feb-18 14:14 25.246178 -77.802421 126 29111ft 314kts
04-Feb-18 14:15 25.202307 -77.720078 126 29112ft 313kts
04-Feb-18 14:16 25.158821 -77.638580 126 29113ft 313kts
04-Feb-18 14:17 25.114812 -77.556237 126 29114ft 314kts
04-Feb-18 14:18 25.070603 -77.473671 125 29115ft 313kts
04-Feb-18 14:19 25.026437 -77.391333 125 29115ft 311kts
04-Feb-18 14:20 24.983385 -77.311213 124 29106ft 309kts
04-Feb-18 14:21 24.939928 -77.230480 124 29106ft 305kts
04-Feb-18 14:22 24.896973 -77.150812 124 29107ft 303kts
04-Feb-18 14:23 24.853825 -77.070926 124 29108ft 303kts
04-Feb-18 14:24 24.811065 -76.991899 124 29109ft 303kts
04-Feb-18 14:25 24.768024 -76.912453 124 29110ft 303kts
04-Feb-18 14:26 24.725006 -76.833203 125 29111ft 303kts
04-Feb-18 14:27 24.681839 -76.753812 125 29111ft 303kts
04-Feb-18 14:29 24.638873 -76.674921 125 29112ft 303kts
04-Feb-18 14:30 24.595593 -76.595585 125 29113ft 303kts
04-Feb-18 14:31 24.552491 -76.516705 125 29113ft 303kts
04-Feb-18 14:32 24.509127 -76.437477 125 29114ft 303kts
04-Feb-18 14:33 24.465773 -76.358396 125 29115ft 303kts
04-Feb-18 14:34 24.422444 -76.279479 125 29106ft 302kts
04-Feb-18 14:35 24.379256 -76.200956 125 29107ft 301kts
04-Feb-18 14:36 24.336001 -76.122443 125 29108ft 301kts
04-Feb-18 14:37 24.292711 -76.043994 125 29108ft 301kts
04-Feb-18 14:38 24.249406 -75.965645 125 29109ft 301kts
04-Feb-18 14:39 24.206006 -75.887250 125 29110ft 302kts
04-Feb-18 14:40 24.162524 -75.808832 125 29110ft 302kts
04-Feb-18 14:41 24.119114 -75.730671 125 29111ft 302kts
04-Feb-18 14:42 24.075409 -75.652103 125 29112ft 302kts
04-Feb-18 14:43 24.031722 -75.573695 125 29112ft 302kts
04-Feb-18 14:44 23.987994 -75.495337 125 29113ft 303kts
04-Feb-18 14:45 23.944346 -75.417247 125 29114ft 303kts
04-Feb-18 14:46 23.900568 -75.339050 126 29108ft 303kts
04-Feb-18 14:47 23.856822 -75.261030 126 29107ft 302kts
04-Feb-18 14:48 23.812981 -75.182968 126 29108ft 301kts
04-Feb-18 14:49 23.769237 -75.105204 126 29108ft 301kts
04-Feb-18 14:50 23.725424 -75.027439 126 29109ft 301kts
04-Feb-18 14:51 23.681664 -74.949889 126 29110ft 301kts
04-Feb-18 14:51 23.645076 -74.885144 127 29110ft 301kts
04-Feb-18 14:52 23.601166 -74.807552 127 29104ft 302kts
04-Feb-18 14:53 23.557148 -74.729892 127 29085ft 302kts
04-Feb-18 14:55 23.505741 -74.639345 127 29052ft 302kts
04-Feb-18 14:56 23.461501 -74.561545 127 29050ft 302kts
04-Feb-18 14:56 23.424616 -74.496773 127 29051ft 302kts
04-Feb-18 14:57 23.380543 -74.419491 127 29052ft 302kts
04-Feb-18 14:58 23.336589 -74.342535 127 29047ft 302kts
04-Feb-18 14:59 23.292924 -74.266190 127 29043ft 300kts
04-Feb-18 15:00 23.249029 -74.189570 127 29044ft 300kts
04-Feb-18 15:01 23.204955 -74.112756 127 29045ft 300kts
04-Feb-18 15:02 23.161088 -74.036416 127 29045ft 300kts
04-Feb-18 15:03 23.117092 -73.959967 127 29046ft 300kts
04-Feb-18 15:04 23.072967 -73.883408 127 29046ft 300kts
04-Feb-18 15:05 23.029037 -73.807301 127 29047ft 300kts
04-Feb-18 15:06 22.984714 -73.730626 127 29045ft 299kts
04-Feb-18 15:07 22.940772 -73.654726 127 29041ft 298kts
04-Feb-18 15:08 22.897434 -73.579980 126 29039ft 296kts
04-Feb-18 15:09 22.853779 -73.504810 126 29040ft 294kts
04-Feb-18 15:10 22.810272 -73.429994 126 29041ft 294kts
04-Feb-18 15:11 22.767046 -73.355763 126 29041ft 294kts
04-Feb-18 15:12 22.727865 -73.288557 126 29043ft 294kts
04-Feb-18 15:13 22.684246 -73.213844 126 29043ft 294kts
04-Feb-18 15:14 22.641185 -73.140201 126 29044ft 295kts
04-Feb-18 15:15 22.596811 -73.064425 127 29045ft 296kts
04-Feb-18 15:16 22.552799 -72.989375 127 29045ft 296kts
04-Feb-18 15:17 22.508704 -72.914290 127 29050ft 297kts
04-Feb-18 15:18 22.464464 -72.839065 127 29059ft 297kts
04-Feb-18 15:19 22.420377 -72.764209 127 29069ft 297kts
04-Feb-18 15:20 22.376095 -72.689128 127 29076ft 297kts
04-Feb-18 15:21 22.331544 -72.613697 127 29076ft 298kts
04-Feb-18 15:22 22.286984 -72.538362 127 29077ft 298kts
04-Feb-18 15:23 22.242985 -72.464079 127 29077ft 299kts
04-Feb-18 15:24 22.199135 -72.390150 127 29078ft 299kts
04-Feb-18 15:25 22.154461 -72.314937 127 29070ft 298kts
04-Feb-18 15:26 22.109941 -72.240085 127 29070ft 297kts
04-Feb-18 15:27 22.065736 -72.165872 127 29071ft 297kts
04-Feb-18 15:28 22.021236 -72.091270 127 29072ft 297kts
04-Feb-18 15:29 21.976553 -72.016462 128 29072ft 297kts
04-Feb-18 15:30 21.934247 -71.945732 127 29073ft 297kts
04-Feb-18 15:31 21.889681 -71.871322 127 29075ft 297kts
04-Feb-18 15:32 21.845377 -71.797458 127 29076ft 298kts
04-Feb-18 15:33 21.801877 -71.725029 127 29077ft 298kts
04-Feb-18 15:34 21.756995 -71.650398 127 29077ft 298kts
04-Feb-18 15:35 21.711910 -71.575535 127 29077ft 299kts
04-Feb-18 15:36 21.666847 -71.500809 127 29078ft 299kts
04-Feb-18 15:37 21.621751 -71.426131 127 29079ft 299kts
04-Feb-18 15:38 21.576537 -71.351361 127 29079ft 299kts
04-Feb-18 15:39 21.531347 -71.276717 128 29071ft 298kts
04-Feb-18 15:40 21.486401 -71.202589 128 29072ft 297kts
04-Feb-18 15:41 21.441293 -71.128299 128 29072ft 297kts
04-Feb-18 15:42 21.396247 -71.054212 128 29073ft 297kts
04-Feb-18 15:43 21.351772 -70.981158 128 29073ft 297kts
04-Feb-18 15:44 21.306599 -70.907055 129 29074ft 296kts
04-Feb-18 15:45 21.262476 -70.834772 129 29074ft 295kts
04-Feb-18 15:46 21.218009 -70.762022 129 29074ft 294kts
04-Feb-18 15:47 21.174022 -70.690153 129 29075ft 293kts
04-Feb-18 15:48 21.129776 -70.617953 129 29075ft 293kts
04-Feb-18 15:49 21.085628 -70.546002 129 29076ft 293kts
04-Feb-18 15:50 21.041528 -70.474221 129 29076ft 292kts
04-Feb-18 15:51 20.997560 -70.402747 129 29076ft 290kts
04-Feb-18 15:52 20.953747 -70.331616 130 29069ft 288kts
04-Feb-18 15:53 20.910174 -70.260967 130 29068ft 286kts
04-Feb-18 15:54 20.869025 -70.194333 130 29074ft 286kts
04-Feb-18 15:55 20.825586 -70.124077 130 29074ft 286kts
04-Feb-18 15:56 20.782109 -70.053840 130 29074ft 287kts
04-Feb-18 15:57 20.738516 -69.983504 130 29075ft 287kts
04-Feb-18 15:58 20.694973 -69.913335 130 29075ft 287kts
04-Feb-18 15:59 20.651594 -69.843516 130 29075ft 287kts
04-Feb-18 16:00 20.607918 -69.773305 130 29076ft 287kts
04-Feb-18 16:01 20.564227 -69.703156 130 29076ft 287kts
04-Feb-18 16:02 20.520816 -69.633540 130 29076ft 287kts
04-Feb-18 16:03 20.477247 -69.563756 130 29080ft 287kts
04-Feb-18 16:04 20.433187 -69.493268 130 29092ft 287kts
04-Feb-18 16:05 20.388931 -69.422558 130 29100ft 287kts
04-Feb-18 16:06 20.344667 -69.351922 130 29105ft 287kts
04-Feb-18 16:07 20.300394 -69.281346 130 29107ft 286kts
04-Feb-18 16:08 20.256199 -69.210988 130 29117ft 286kts
04-Feb-18 16:09 20.212167 -69.140981 130 29124ft 286kts
04-Feb-18 16:10 20.167654 -69.070232 121 29131ft 295kts
04-Feb-18 16:11 20.121108 -68.996347 122 29131ft 305kts
04-Feb-18 16:12 20.073520 -68.921009 121 29131ft 309kts
04-Feb-18 16:13 20.025504 -68.845067 121 29132ft 311kts
04-Feb-18 16:14 19.977354 -68.768689 121 29133ft 313kts
04-Feb-18 16:15 19.929018 -68.691630 121 29134ft 313kts
04-Feb-18 16:16 19.881440 -68.615982 121 29127ft 313kts
04-Feb-18 16:17 19.833221 -68.539422 121 29127ft 312kts
04-Feb-18 16:18 19.784947 -68.462859 121 29102ft 313kts
04-Feb-18 16:19 19.736448 -68.386043 121 29052ft 314kts
04-Feb-18 16:20 19.688900 -68.310828 121 29004ft 313kts
04-Feb-18 16:21 19.640713 -68.234692 121 28996ft 311kts
04-Feb-18 16:22 19.592478 -68.158574 121 28997ft 310kts
04-Feb-18 16:23 19.544456 -68.082896 121 28998ft 310kts
04-Feb-18 16:24 19.496361 -68.007198 121 28999ft 310kts
04-Feb-18 16:25 19.448077 -67.931302 121 29000ft 311kts
04-Feb-18 16:26 19.401668 -67.858444 121 29020ft 310kts
04-Feb-18 16:27 19.354100 -67.783855 122 29049ft 310kts
04-Feb-18 16:28 19.307041 -67.710156 121 29078ft 311kts
04-Feb-18 16:29 19.262943 -67.638010 108 29101ft 309kts
04-Feb-18 16:30 19.244858 -67.559343 97 29096ft 306kts
04-Feb-18 16:31 19.227056 -67.473549 97 29096ft 306kts
04-Feb-18 16:32 19.209064 -67.387220 97 29097ft 307kts
04-Feb-18 16:33 19.191400 -67.303426 98 29087ft 295kts
04-Feb-18 16:34 19.174745 -67.225576 97 29089ft 267kts
04-Feb-18 16:35 19.159518 -67.152691 96 29091ft 254kts
04-Feb-18 16:36 19.144794 -67.082395 96 29092ft 247kts
04-Feb-18 16:38 19.130631 -67.015046 96 29093ft 243kts
04-Feb-18 16:39 19.116255 -66.947000 96 29094ft 242kts
04-Feb-18 16:40 19.101860 -66.878994 96 29095ft 241kts
04-Feb-18 16:41 19.087342 -66.810547 96 29095ft 241kts
04-Feb-18 16:42 19.072811 -66.742172 96 29096ft 241kts
04-Feb-18 16:43 19.058313 -66.674100 96 29097ft 241kts
04-Feb-18 16:44 19.043578 -66.604796 96 28838ft 253kts
04-Feb-18 16:45 19.028068 -66.532327 96 28401ft 263kts
04-Feb-18 16:46 19.012037 -66.457790 96 27960ft 267kts
04-Feb-18 16:47 18.995864 -66.382617 96 27518ft 267kts
04-Feb-18 16:48 18.980145 -66.309634 96 27062ft 267kts
04-Feb-18 16:49 18.963693 -66.231123 96 26517ft 297kts
04-Feb-18 16:50 18.945145 -66.145505 97 25963ft 311kts
04-Feb-18 16:51 18.926029 -66.057989 97 25403ft 312kts
04-Feb-18 16:52 18.906784 -65.970105 97 24833ft 299kts
04-Feb-18 16:53 18.889339 -65.891959 96 24229ft 267kts
04-Feb-18 16:54 18.873440 -65.818658 95 23608ft 252kts
04-Feb-18 16:55 18.858115 -65.748194 95 22990ft 244kts
04-Feb-18 16:56 18.843302 -65.680379 95 22380ft 239kts
04-Feb-18 16:57 18.828594 -65.613249 95 21766ft 235kts
04-Feb-18 16:58 18.813193 -65.540020 96 21178ft 274kts
04-Feb-18 16:59 18.795476 -65.460402 97 20568ft 284kts
04-Feb-18 17:00 18.777424 -65.379318 97 19949ft 284kts
04-Feb-18 17:01 18.759576 -65.298796 97 19338ft 282kts
04-Feb-18 17:01 18.744794 -65.232118 98 18834ft 280kts
04-Feb-18 17:02 18.727318 -65.153410 98 18233ft 277kts
04-Feb-18 17:04 18.707200 -65.062989 98 17536ft 274kts
04-Feb-18 17:05 18.689936 -64.985562 98 16932ft 271kts
04-Feb-18 17:05 18.675577 -64.921284 99 16425ft 270kts
04-Feb-18 17:06 18.658604 -64.845440 99 15823ft 268kts
04-Feb-18 17:07 18.641671 -64.769928 100 15218ft 266kts
04-Feb-18 17:08 18.624867 -64.695145 100 14614ft 265kts
04-Feb-18 17:09 18.608101 -64.620680 100 14008ft 263kts
04-Feb-18 17:10 18.591271 -64.546071 101 13396ft 262kts
04-Feb-18 17:11 18.574547 -64.472078 101 12786ft 261kts
04-Feb-18 17:12 18.557873 -64.398439 103 12174ft 261kts
04-Feb-18 17:13 18.543676 -64.335833 103 11661ft 261kts
04-Feb-18 17:14 18.526890 -64.261984 103 11071ft 261kts
04-Feb-18 17:15 18.510094 -64.188221 103 10477ft 260kts
04-Feb-18 17:16 18.493256 -64.114410 103 9880ft 259kts
04-Feb-18 17:17 18.476441 -64.040841 103 9281ft 259kts
04-Feb-18 17:18 18.459852 -63.968395 103 8689ft 258kts
04-Feb-18 17:19 18.443388 -63.896626 103 8099ft 257kts
04-Feb-18 17:20 18.427073 -63.825639 103 7512ft 257kts
04-Feb-18 17:21 18.412319 -63.761912 103 6974ft 246kts
04-Feb-18 17:22 18.397566 -63.698436 102 6397ft 232kts
04-Feb-18 17:23 18.365971 -63.642185 133 5788ft 232kts
04-Feb-18 17:24 18.320133 -63.596391 134 5355ft 228kts
04-Feb-18 17:25 18.273855 -63.550859 134 4753ft 231kts
04-Feb-18 17:26 18.227733 -63.505347 134 4154ft 231kts
04-Feb-18 17:27 18.181654 -63.459682 134 3552ft 230kts
04-Feb-18 17:28 18.135252 -63.413730 134 2945ft 230kts
04-Feb-18 17:29 18.088989 -63.367955 134 2339ft 229kts
04-Feb-18 17:30 18.043900 -63.323392 134 2074ft 219kts
04-Feb-18 17:31 18.017846 -63.271906 82 2079ft 208kts
04-Feb-18 17:32 18.024417 -63.224670 78 1949ft 115kts
04-Feb-18 17:33 18.028978 -63.193319 81 1356ft 104kts
04-Feb-18 17:34 18.032652 -63.167517 81 855ft 80kts
04-Feb-18 17:35 18.036110 -63.142786 80 520ft 76kts
04-Feb-18 17:36 18.039243 -63.120856 79 68ft 71kts
04-Feb-18 17:37 18.041361 -63.112682 58 14ft 8kts
04-Feb-18 17:38 18.041764 -63.112070 172 14ft 0kts
04-Feb-18 17:39 18.041765 -63.112070 172 14ft 0kts
04-Feb-18 17:40 18.041765 -63.112070 172 14ft 0kts
04-Feb-18 17:41 18.041765 -63.112070 172 14ft 0kts

Navigation Log

Ident Type
Flight plan parsing failed, navigation log unavailable